Time;durP1;ratioP1;P1;durP2;ratioP2;P2;SDS_P1;SDS_P2;PMS_P1;PMS_P2;Temp;Humidity;BMP_temperature;BMP_pressure;BME280_temperature;BME280_humidity;BME280_pressure;Samples;Min_cycle;Max_cycle;Signal;HPM_P1;HPM_P2
2023/12/27 00:02:02;;;;;;;20.97;2.20;;;4.20;1.00;;;;;;5022427;28;20187;-52
2023/12/27 00:04:27;;;;;;;11.97;2.20;;;4.20;1.00;;;;;;5016377;28;20184;-53
2023/12/27 00:06:55;;;;;;;11.40;1.97;;;4.20;1.00;;;;;;5016247;28;20322;-53
2023/12/27 00:09:20;;;;;;;22.57;3.40;;;4.20;1.00;;;;;;5012916;28;20289;-53
2023/12/27 00:11:46;;;;;;;19.27;3.47;;;4.10;37.20;;;;;;5015914;28;20472;-53
2023/12/27 00:14:12;;;;;;;18.60;2.80;;;4.10;99.90;;;;;;5012080;28;20188;-53
2023/12/27 00:16:37;;;;;;;20.23;2.97;;;4.10;99.90;;;;;;5017719;28;20207;-53
2023/12/27 00:19:03;;;;;;;18.03;3.50;;;4.10;99.90;;;;;;5009966;28;20186;-53
2023/12/27 00:21:29;;;;;;;21.63;3.47;;;4.10;99.90;;;;;;5008384;28;20253;-53
2023/12/27 00:23:55;;;;;;;11.13;2.97;;;4.10;99.90;;;;;;5015821;28;20191;-53
2023/12/27 00:26:20;;;;;;;11.53;2.30;;;4.10;99.90;;;;;;5014315;28;20540;-53
2023/12/27 00:28:46;;;;;;;17.17;2.73;;;4.10;99.90;;;;;;5011067;28;20513;-52
2023/12/27 00:31:12;;;;;;;9.40;2.43;;;4.00;89.40;;;;;;5012526;28;20184;-53
2023/12/27 00:33:37;;;;;;;19.40;3.03;;;4.00;99.90;;;;;;5015017;28;20256;-52
2023/12/27 00:36:04;;;;;;;8.20;1.90;;;4.00;99.90;;;;;;5014094;28;20182;-53
2023/12/27 00:38:29;;;;;;;10.30;2.57;;;4.00;99.90;;;;;;5017608;28;20206;-53
2023/12/27 00:40:55;;;;;;;17.07;2.37;;;4.00;99.90;;;;;;5015917;28;20926;-54
2023/12/27 00:43:21;;;;;;;14.23;2.47;;;4.00;99.90;;;;;;5018723;28;20198;-53
2023/12/27 00:45:47;;;;;;;10.43;1.97;;;4.00;99.90;;;;;;5017110;28;20188;-53
2023/12/27 00:48:12;;;;;;;17.80;2.67;;;4.00;99.90;;;;;;5015956;28;20215;-53
2023/12/27 00:50:38;;;;;;;16.27;2.27;;;4.00;1.00;;;;;;5020450;28;20194;-53
2023/12/27 00:53:03;;;;;;;17.33;3.10;;;4.00;1.00;;;;;;5019097;28;20215;-53
2023/12/27 00:55:29;;;;;;;18.47;2.70;;;3.90;1.00;;;;;;5014401;28;20199;-53
2023/12/27 00:57:55;;;;;;;20.93;2.50;;;3.90;1.00;;;;;;5019079;28;20517;-52
2023/12/27 01:00:20;;;;;;;12.60;2.80;;;3.80;1.00;;;;;;5017129;28;20200;-52
2023/12/27 01:02:46;;;;;;;17.20;2.90;;;3.80;1.00;;;;;;5015752;28;20633;-53
2023/12/27 01:05:12;;;;;;;7.73;2.37;;;3.80;1.00;;;;;;5015552;28;20188;-52
2023/12/27 01:07:37;;;;;;;10.93;2.47;;;3.70;77.50;;;;;;5016502;28;20249;-53
2023/12/27 01:10:04;;;;;;;10.97;2.07;;;3.70;18.00;;;;;;5017096;28;20182;-53
2023/12/27 01:12:29;;;;;;;19.87;2.20;;;3.70;99.90;;;;;;5020255;28;20241;-53
2023/12/27 01:14:55;;;;;;;14.20;2.40;;;3.70;1.00;;;;;;5016649;28;20434;-53
2023/12/27 01:17:21;;;;;;;19.23;2.33;;;3.70;36.10;;;;;;5018240;28;20247;-53
2023/12/27 01:19:46;;;;;;;22.47;2.40;;;3.70;99.90;;;;;;5018363;28;20188;-54
2023/12/27 01:22:12;;;;;;;14.43;2.40;;;3.60;88.40;;;;;;5019463;28;20202;-53
2023/12/27 01:24:38;;;;;;;8.40;2.40;;;3.60;1.00;;;;;;5021811;28;20544;-54
2023/12/27 01:27:04;;;;;;;10.77;1.97;;;3.50;99.90;;;;;;5021004;28;20219;-54
2023/12/27 01:29:30;;;;;;;5.77;2.00;;;3.60;99.90;;;;;;5021569;28;20262;-54
2023/12/27 01:31:55;;;;;;;12.37;2.10;;;3.60;99.90;;;;;;5019157;28;20470;-53
2023/12/27 01:34:21;;;;;;;17.23;2.67;;;3.50;99.90;;;;;;5017154;28;20184;-53
2023/12/27 01:36:46;;;;;;;14.30;2.50;;;3.50;99.90;;;;;;5016352;28;20257;-53
2023/12/27 01:39:12;;;;;;;12.90;2.57;;;3.40;99.90;;;;;;5016484;28;20191;-53
2023/12/27 01:41:38;;;;;;;18.67;2.23;;;3.40;1.00;;;;;;5025627;28;20583;-53
2023/12/27 01:44:04;;;;;;;11.70;2.13;;;3.40;1.00;;;;;;5020662;28;20189;-53
2023/12/27 01:46:30;;;;;;;12.90;2.17;;;3.30;99.90;;;;;;5016831;28;20646;-54
2023/12/27 01:48:57;;;;;;;15.33;2.23;;;3.20;1.00;;;;;;5023943;28;20236;-54
2023/12/27 01:51:23;;;;;;;7.77;2.47;;;3.10;1.00;;;;;;5014048;28;20612;-53
2023/12/27 01:53:50;;;;;;;8.90;1.80;;;3.20;1.00;;;;;;5013154;28;20529;-54
2023/12/27 01:56:16;;;;;;;14.83;3.20;;;3.10;1.00;;;;;;5015789;28;20199;-54
2023/12/27 01:58:41;;;;;;;9.53;2.30;;;3.00;1.00;;;;;;5012559;28;20436;-53
2023/12/27 02:01:07;;;;;;;13.77;3.03;;;2.90;99.90;;;;;;5020799;28;20184;-53
2023/12/27 02:03:33;;;;;;;13.53;2.30;;;2.90;99.90;;;;;;5018374;28;20329;-54
2023/12/27 02:05:59;;;;;;;11.00;2.60;;;2.90;99.90;;;;;;5016022;28;20302;-54
2023/12/27 02:08:27;;;;;;;10.57;2.50;;;3.00;99.90;;;;;;5022078;28;20209;-54
2023/12/27 02:10:52;;;;;;;5.50;2.10;;;3.00;99.90;;;;;;5018974;28;20497;-54
2023/12/27 02:13:19;;;;;;;16.93;2.50;;;3.20;99.90;;;;;;5014977;28;20914;-53
2023/12/27 02:15:46;;;;;;;14.20;2.63;;;3.10;99.90;;;;;;5019392;28;20196;-54
2023/12/27 02:18:13;;;;;;;15.90;2.00;;;3.10;99.90;;;;;;5013929;28;20682;-54
2023/12/27 02:20:40;;;;;;;19.83;2.77;;;3.10;99.90;;;;;;5020279;28;20455;-53
2023/12/27 02:23:07;;;;;;;15.53;2.10;;;3.10;99.90;;;;;;5014660;28;20442;-54
2023/12/27 02:25:34;;;;;;;11.67;2.40;;;3.10;99.90;;;;;;5015720;28;20430;-54
2023/12/27 02:28:00;;;;;;;18.27;2.60;;;3.10;99.90;;;;;;5017309;28;20466;-53
2023/12/27 02:30:26;;;;;;;15.90;3.60;;;3.10;99.90;;;;;;5015953;28;20965;-54
2023/12/27 02:32:52;;;;;;;13.20;2.13;;;3.00;99.90;;;;;;5021697;28;20529;-54
2023/12/27 02:35:18;;;;;;;12.90;2.57;;;3.00;99.90;;;;;;5014577;28;20270;-54
2023/12/27 02:37:44;;;;;;;13.10;2.73;;;3.00;99.90;;;;;;5016987;28;20445;-54
2023/12/27 02:40:10;;;;;;;14.20;2.67;;;3.00;99.90;;;;;;5018715;28;20439;-54
2023/12/27 02:42:39;;;;;;;11.57;2.13;;;3.00;99.90;;;;;;5022554;28;20450;-54
2023/12/27 02:45:06;;;;;;;12.43;2.53;;;3.00;99.90;;;;;;5023281;28;20209;-54
2023/12/27 02:47:32;;;;;;;18.80;2.30;;;3.00;99.90;;;;;;5016327;28;20553;-54
2023/12/27 02:49:58;;;;;;;15.33;2.80;;;3.00;99.90;;;;;;5021071;28;20485;-54
2023/12/27 02:52:24;;;;;;;14.77;2.60;;;3.00;99.90;;;;;;5016755;28;20451;-54
2023/12/27 02:54:49;;;;;;;18.10;2.17;;;3.00;99.90;;;;;;5019380;28;20187;-54
2023/12/27 02:57:15;;;;;;;10.97;2.40;;;2.90;99.90;;;;;;5019350;28;20343;-53
2023/12/27 02:59:40;;;;;;;11.57;2.93;;;2.90;99.90;;;;;;5016886;28;21041;-54
2023/12/27 03:02:06;;;;;;;17.83;2.70;;;2.90;1.00;;;;;;5019089;28;20188;-54
2023/12/27 03:04:32;;;;;;;14.13;2.60;;;2.90;99.90;;;;;;5013965;28;20212;-53
2023/12/27 03:06:57;;;;;;;8.20;2.20;;;2.90;1.00;;;;;;5014377;28;20275;-53
2023/12/27 03:09:24;;;;;;;15.63;2.50;;;2.90;1.00;;;;;;5018613;28;20211;-53
2023/12/27 03:11:51;;;;;;;12.20;2.30;;;2.90;1.00;;;;;;5021097;28;20282;-54
2023/12/27 03:14:16;;;;;;;22.23;3.63;;;2.90;1.00;;;;;;5011842;28;20492;-53
2023/12/27 03:16:42;;;;;;;19.63;3.73;;;2.80;1.00;;;;;;5016721;28;20565;-54
2023/12/27 03:19:08;;;;;;;10.20;1.93;;;2.80;1.00;;;;;;5019148;28;20219;-53
2023/12/27 03:21:33;;;;;;;13.30;2.93;;;2.80;1.00;;;;;;5019674;28;20196;-54
2023/12/27 03:23:59;;;;;;;15.70;2.53;;;2.70;1.00;;;;;;5014920;28;20179;-53
2023/12/27 03:26:24;;;;;;;13.37;2.47;;;2.70;1.00;;;;;;5020839;28;20190;-53
2023/12/27 03:28:50;;;;;;;6.63;2.20;;;2.70;1.00;;;;;;5019905;28;20704;-53
2023/12/27 03:31:16;;;;;;;17.10;2.87;;;2.70;1.00;;;;;;5020218;28;20191;-53
2023/12/27 03:33:41;;;;;;;14.30;2.67;;;2.70;1.00;;;;;;5016489;28;20244;-53
2023/12/27 03:36:07;;;;;;;12.80;2.60;;;2.70;1.00;;;;;;5015075;28;20199;-53
2023/12/27 03:38:33;;;;;;;14.43;2.60;;;2.60;1.00;;;;;;5015196;28;20187;-53
2023/12/27 03:40:58;;;;;;;15.23;2.10;;;2.50;1.00;;;;;;5015756;28;20192;-53
2023/12/27 03:43:24;;;;;;;22.93;2.60;;;2.60;1.00;;;;;;5011705;28;20215;-54
2023/12/27 03:45:53;;;;;;;12.40;2.53;;;2.60;1.00;;;;;;5017937;28;20656;-53
2023/12/27 03:48:19;;;;;;;11.67;2.23;;;2.70;1.00;;;;;;5014764;28;20224;-53
2023/12/27 03:50:45;;;;;;;22.00;2.20;;;2.80;1.00;;;;;;5018174;28;20471;-53
2023/12/27 03:53:11;;;;;;;10.57;2.33;;;2.70;1.00;;;;;;5012316;28;20472;-53
2023/12/27 03:55:36;;;;;;;8.37;2.30;;;2.70;1.00;;;;;;5015962;28;20294;-52
2023/12/27 03:58:02;;;;;;;12.53;2.60;;;2.80;1.00;;;;;;5012704;28;20188;-53
2023/12/27 04:00:28;;;;;;;22.73;2.67;;;2.80;1.00;;;;;;5019949;28;20193;-53
2023/12/27 04:02:54;;;;;;;12.33;2.43;;;2.90;1.00;;;;;;5014864;28;20188;-52
2023/12/27 04:05:20;;;;;;;18.23;2.90;;;2.80;1.00;;;;;;5015193;28;20448;-53
2023/12/27 04:07:45;;;;;;;23.33;2.90;;;2.90;1.00;;;;;;5009245;28;20237;-53
2023/12/27 04:10:11;;;;;;;22.87;4.00;;;2.90;1.00;;;;;;5014016;28;20218;-52
2023/12/27 04:12:37;;;;;;;12.30;2.53;;;2.90;99.90;;;;;;5019780;28;20598;-52
2023/12/27 04:15:02;;;;;;;9.57;2.50;;;2.90;99.90;;;;;;5017472;28;20807;-52
2023/12/27 04:17:28;;;;;;;7.37;3.43;;;3.00;99.90;;;;;;5019569;28;20282;-53
2023/12/27 04:19:54;;;;;;;11.17;2.40;;;3.00;99.90;;;;;;5015786;28;20184;-52
2023/12/27 04:22:19;;;;;;;9.60;2.90;;;3.00;99.90;;;;;;5015591;28;20179;-53
2023/12/27 04:24:45;;;;;;;21.50;3.20;;;3.10;99.90;;;;;;5017466;28;20190;-52
2023/12/27 04:27:11;;;;;;;13.73;2.80;;;3.00;99.90;;;;;;5013669;28;20654;-53
2023/12/27 04:29:36;;;;;;;17.53;2.67;;;3.00;99.90;;;;;;5021323;28;20226;-53
2023/12/27 04:32:02;;;;;;;10.83;2.57;;;3.00;99.90;;;;;;5011026;28;20180;-53
2023/12/27 04:34:28;;;;;;;18.43;2.50;;;2.90;99.90;;;;;;5011553;28;20722;-52
2023/12/27 04:36:53;;;;;;;9.47;2.53;;;3.00;99.90;;;;;;5012706;28;20717;-53
2023/12/27 04:39:19;;;;;;;15.50;2.57;;;2.90;99.90;;;;;;5015901;28;20184;-53
2023/12/27 04:41:44;;;;;;;8.60;2.60;;;2.90;99.90;;;;;;5015953;28;20242;-52
2023/12/27 04:44:10;;;;;;;7.90;2.43;;;2.80;99.90;;;;;;5017711;28;20206;-54
2023/12/27 04:46:39;;;;;;;12.80;2.60;;;2.80;99.90;;;;;;5021826;28;20659;-53
2023/12/27 04:49:09;;;;;;;11.63;2.30;;;2.80;99.90;;;;;;5013299;28;20211;-54
2023/12/27 04:51:35;;;;;;;5.97;2.60;;;2.80;99.90;;;;;;5015523;28;20947;-54
2023/12/27 04:54:04;;;;;;;14.90;2.43;;;2.80;99.90;;;;;;5009615;28;21308;-54
2023/12/27 04:56:30;;;;;;;11.83;2.70;;;2.80;99.90;;;;;;5015982;28;20793;-54
2023/12/27 04:58:55;;;;;;;11.80;2.43;;;2.70;99.90;;;;;;5017106;28;21560;-54
2023/12/27 05:01:21;;;;;;;14.10;3.07;;;2.70;99.90;;;;;;5017363;28;20201;-53
2023/12/27 05:03:46;;;;;;;12.10;3.70;;;2.70;99.90;;;;;;5013615;28;20188;-55
2023/12/27 05:06:13;;;;;;;13.10;2.70;;;2.70;99.90;;;;;;5010744;28;20231;-56
2023/12/27 05:08:41;;;;;;;11.93;2.20;;;2.70;1.00;;;;;;5012906;28;20588;-54
2023/12/27 05:11:15;;;;;;;10.60;2.60;;;2.70;1.00;;;;;;5013100;28;20801;-53
2023/12/27 05:13:41;;;;;;;15.40;3.33;;;2.70;1.00;;;;;;5014733;28;20518;-53
2023/12/27 05:16:10;;;;;;;15.63;2.50;;;2.70;1.00;;;;;;5013473;28;20438;-53
2023/12/27 05:18:37;;;;;;;14.30;2.90;;;2.80;1.00;;;;;;5015508;28;20976;-54
2023/12/27 05:21:03;;;;;;;17.50;3.00;;;2.80;1.00;;;;;;5016462;28;20438;-53
2023/12/27 05:23:28;;;;;;;13.13;3.50;;;2.80;1.00;;;;;;5012971;28;20444;-53
2023/12/27 05:25:54;;;;;;;12.57;2.87;;;2.90;99.90;;;;;;5015768;28;20622;-54
2023/12/27 05:28:19;;;;;;;11.07;2.40;;;2.90;99.90;;;;;;5023457;28;20344;-53
2023/12/27 05:30:45;;;;;;;21.43;3.03;;;2.90;99.90;;;;;;5018610;28;20883;-53
2023/12/27 05:33:11;;;;;;;24.83;2.90;;;2.90;99.90;;;;;;5016044;28;20196;-53
2023/12/27 05:35:36;;;;;;;11.13;2.90;;;2.90;99.90;;;;;;5016207;28;20180;-53
2023/12/27 05:38:02;;;;;;;18.27;2.73;;;2.90;99.90;;;;;;5020004;28;20195;-53
2023/12/27 05:40:28;;;;;;;9.80;2.63;;;3.00;99.90;;;;;;5016690;28;20765;-54
2023/12/27 05:42:53;;;;;;;7.60;2.73;;;3.00;99.90;;;;;;5018958;28;20187;-53
2023/12/27 05:45:19;;;;;;;10.40;2.60;;;3.00;99.90;;;;;;5013663;28;20539;-54
2023/12/27 05:47:44;;;;;;;11.03;3.00;;;3.10;99.90;;;;;;5021257;28;20222;-53
2023/12/27 05:50:10;;;;;;;13.33;2.80;;;3.00;99.90;;;;;;5020369;28;20184;-53
2023/12/27 05:52:37;;;;;;;15.33;3.10;;;3.00;99.90;;;;;;5022153;28;20219;-53
2023/12/27 05:55:03;;;;;;;14.33;2.90;;;3.00;99.90;;;;;;5020360;28;20202;-54
2023/12/27 05:57:28;;;;;;;5.27;2.20;;;3.00;99.90;;;;;;5016777;28;20449;-54
2023/12/27 05:59:54;;;;;;;10.30;3.47;;;3.00;99.90;;;;;;5027075;28;20676;-53
2023/12/27 06:02:19;;;;;;;15.37;3.30;;;3.00;99.90;;;;;;5023469;28;20178;-53
2023/12/27 06:04:45;;;;;;;16.07;3.10;;;3.10;99.90;;;;;;5022272;28;20188;-53
2023/12/27 06:07:12;;;;;;;11.73;3.37;;;3.10;99.90;;;;;;5021535;28;20226;-54
2023/12/27 06:09:38;;;;;;;28.87;3.70;;;3.20;24.90;;;;;;5014877;28;20216;-54
2023/12/27 06:12:07;;;;;;;13.07;2.70;;;3.30;1.00;;;;;;5016365;28;20494;-53
2023/12/27 06:14:32;;;;;;;10.70;3.43;;;3.20;1.00;;;;;;5010298;28;20439;-54
2023/12/27 06:16:58;;;;;;;19.33;2.70;;;3.20;1.00;;;;;;5021848;28;20858;-53
2023/12/27 06:19:24;;;;;;;9.30;2.30;;;3.30;99.90;;;;;;5014908;28;20231;-54
2023/12/27 06:21:49;;;;;;;10.90;2.50;;;3.30;99.90;;;;;;5016259;28;20184;-53
2023/12/27 06:24:15;;;;;;;14.63;2.50;;;3.40;99.90;;;;;;5011656;28;20215;-53
2023/12/27 06:26:41;;;;;;;13.67;2.43;;;3.30;28.60;;;;;;5017112;28;20231;-54
2023/12/27 06:29:06;;;;;;;11.80;2.80;;;3.20;31.80;;;;;;5013887;28;23421;-53
2023/12/27 06:31:34;;;;;;;17.77;3.10;;;3.30;99.90;;;;;;5017894;28;20513;-54
2023/12/27 06:34:00;;;;;;;12.63;2.40;;;3.30;99.90;;;;;;5013674;28;20209;-53
2023/12/27 06:36:26;;;;;;;10.13;2.40;;;3.30;99.90;;;;;;5019190;28;20480;-54
2023/12/27 06:38:52;;;;;;;16.27;2.70;;;3.40;99.90;;;;;;5016635;28;20441;-53
2023/12/27 06:41:18;;;;;;;22.77;2.87;;;3.40;1.00;;;;;;5016007;28;20651;-53
2023/12/27 06:43:44;;;;;;;8.73;2.57;;;3.30;1.00;;;;;;5017695;28;20275;-54
2023/12/27 06:46:10;;;;;;;6.83;2.27;;;3.30;1.00;;;;;;5012772;28;20539;-54
2023/12/27 06:48:36;;;;;;;12.53;2.97;;;3.40;1.00;;;;;;5014215;28;20220;-53
2023/12/27 06:51:04;;;;;;;10.57;2.07;;;3.40;99.90;;;;;;5015994;28;20524;-53
2023/12/27 06:53:29;;;;;;;15.67;3.03;;;3.50;99.90;;;;;;5011101;28;20247;-54
2023/12/27 06:55:55;;;;;;;5.27;2.07;;;3.50;85.70;;;;;;5011752;28;20441;-53
2023/12/27 06:58:21;;;;;;;10.57;2.57;;;3.50;1.00;;;;;;5014057;28;20478;-53
2023/12/27 07:00:47;;;;;;;9.70;3.40;;;3.50;99.90;;;;;;5015093;28;20196;-53
2023/12/27 07:03:12;;;;;;;9.97;2.97;;;3.50;99.90;;;;;;5010701;28;20191;-53
2023/12/27 07:05:38;;;;;;;19.20;2.60;;;3.40;99.90;;;;;;5016037;28;20664;-53
2023/12/27 07:08:04;;;;;;;7.23;2.93;;;3.40;99.90;;;;;;5017607;28;20221;-54
2023/12/27 07:10:30;;;;;;;12.17;3.73;;;3.30;1.00;;;;;;5016952;28;20706;-53
2023/12/27 07:12:56;;;;;;;12.80;2.63;;;3.30;1.00;;;;;;5016708;28;20534;-53
2023/12/27 07:15:21;;;;;;;11.73;2.60;;;3.30;1.00;;;;;;5021537;28;20187;-53
2023/12/27 07:17:47;;;;;;;10.30;3.03;;;3.20;1.00;;;;;;5017235;28;20580;-53
2023/12/27 07:20:12;;;;;;;10.93;2.40;;;3.30;1.00;;;;;;5012422;28;20225;-53
2023/12/27 07:22:38;;;;;;;4.60;2.67;;;3.30;1.00;;;;;;5016925;28;20230;-53
2023/12/27 07:25:04;;;;;;;21.30;3.07;;;3.30;99.90;;;;;;5017862;28;20218;-53
2023/12/27 07:27:30;;;;;;;8.53;2.63;;;3.20;1.00;;;;;;5021948;28;20557;-53
2023/12/27 07:29:56;;;;;;;7.93;3.50;;;3.10;1.00;;;;;;5010601;28;20437;-53
2023/12/27 07:32:21;;;;;;;19.50;4.60;;;3.20;1.00;;;;;;5023486;28;20187;-54
2023/12/27 07:34:47;;;;;;;15.83;5.13;;;3.20;1.00;;;;;;5016660;28;20529;-53
2023/12/27 07:37:13;;;;;;;16.03;4.80;;;3.20;1.00;;;;;;5015143;28;20179;-54
2023/12/27 07:39:40;;;;;;;19.90;5.30;;;3.10;99.90;;;;;;5021388;28;20191;-53
2023/12/27 07:42:05;;;;;;;13.90;5.30;;;3.00;1.00;;;;;;5017123;28;20183;-53
2023/12/27 07:44:31;;;;;;;21.20;4.93;;;3.00;94.20;;;;;;5014664;28;20438;-53
2023/12/27 07:46:57;;;;;;;21.13;5.30;;;3.00;99.90;;;;;;5017093;28;20172;-54
2023/12/27 07:49:24;;;;;;;18.87;4.67;;;3.10;99.90;;;;;;5019684;28;20232;-54
2023/12/27 07:51:50;;;;;;;13.00;4.70;;;3.10;99.90;;;;;;5034204;28;20187;-53
2023/12/27 07:54:15;;;;;;;12.93;4.40;;;3.00;99.90;;;;;;5022802;28;20528;-53
2023/12/27 07:56:41;;;;;;;11.87;5.07;;;3.00;99.90;;;;;;5024177;28;20196;-54
2023/12/27 07:59:07;;;;;;;18.43;4.17;;;3.00;99.90;;;;;;5019139;28;20194;-53
2023/12/27 08:01:33;;;;;;;21.00;4.53;;;3.00;99.90;;;;;;5020784;28;20195;-54
2023/12/27 08:03:59;;;;;;;18.30;4.80;;;3.00;99.90;;;;;;5020480;28;20529;-53
2023/12/27 08:06:29;;;;;;;13.20;3.97;;;3.00;99.10;;;;;;5022732;28;20238;-53
2023/12/27 08:08:57;;;;;;;13.60;3.60;;;3.00;99.90;;;;;;5019804;28;20469;-53
2023/12/27 08:11:24;;;;;;;10.67;3.30;;;3.00;99.90;;;;;;5022470;28;21034;-53
2023/12/27 08:13:50;;;;;;;12.00;3.93;;;3.00;99.90;;;;;;5017248;28;20430;-53
2023/12/27 08:16:16;;;;;;;13.30;4.13;;;3.00;99.90;;;;;;5018831;28;20648;-53
2023/12/27 08:18:42;;;;;;;11.93;3.20;;;3.00;99.90;;;;;;5016350;28;20439;-53
2023/12/27 08:21:08;;;;;;;14.37;4.30;;;3.10;99.90;;;;;;5022191;28;20185;-53
2023/12/27 08:23:35;;;;;;;13.57;3.70;;;3.10;99.90;;;;;;5017988;28;20219;-53
2023/12/27 08:26:06;;;;;;;10.50;3.60;;;3.10;99.90;;;;;;5021303;28;20549;-53
2023/12/27 08:28:35;;;;;;;11.50;3.57;;;3.10;99.90;;;;;;5018252;28;20492;-54
2023/12/27 08:31:05;;;;;;;12.23;3.60;;;3.10;99.90;;;;;;5019977;28;20452;-53
2023/12/27 08:33:37;;;;;;;29.37;3.80;;;3.10;99.90;;;;;;5028621;28;20450;-54
2023/12/27 08:36:03;;;;;;;14.33;3.70;;;3.20;1.00;;;;;;5015683;28;20452;-54
2023/12/27 08:38:29;;;;;;;17.47;3.77;;;3.20;1.00;;;;;;5012597;28;20448;-53
2023/12/27 08:40:55;;;;;;;19.17;4.53;;;3.30;99.90;;;;;;5013308;28;20449;-53
2023/12/27 08:43:27;;;;;;;11.77;3.43;;;3.30;99.90;;;;;;5010180;28;20191;-53
2023/12/27 08:45:52;;;;;;;18.37;3.93;;;3.40;1.00;;;;;;5016349;28;21037;-54
2023/12/27 08:48:18;;;;;;;7.43;3.00;;;3.40;1.00;;;;;;5014064;28;20541;-54
2023/12/27 08:50:44;;;;;;;13.68;4.05;;;3.40;1.00;;;;;;5010057;28;20766;-54
2023/12/27 08:53:11;;;;;;;12.17;3.03;;;3.40;99.90;;;;;;5020853;28;20550;-54
2023/12/27 08:55:37;;;;;;;16.33;3.87;;;3.50;99.90;;;;;;5015385;28;20872;-54
2023/12/27 08:58:03;;;;;;;15.60;3.93;;;3.50;93.40;;;;;;5015466;28;20575;-54
2023/12/27 09:00:29;;;;;;;13.10;3.47;;;3.50;99.90;;;;;;5016565;28;20442;-53
2023/12/27 09:02:54;;;;;;;17.77;3.50;;;3.60;99.90;;;;;;5016889;28;20214;-54
2023/12/27 09:05:20;;;;;;;12.50;3.47;;;3.60;99.90;;;;;;5027089;28;20213;-54
2023/12/27 09:07:46;;;;;;;12.17;3.20;;;3.70;99.90;;;;;;5022128;28;20517;-53
2023/12/27 09:10:12;;;;;;;18.97;3.50;;;3.70;99.90;;;;;;5021231;28;20199;-54
2023/12/27 09:12:40;;;;;;;10.40;3.00;;;3.80;99.90;;;;;;5025786;28;20184;-53
2023/12/27 09:15:07;;;;;;;13.00;3.57;;;3.80;1.00;;;;;;5024325;28;20469;-54
2023/12/27 09:17:34;;;;;;;9.87;3.33;;;3.90;1.00;;;;;;5023402;28;20584;-53
2023/12/27 09:19:59;;;;;;;9.03;3.20;;;3.90;1.00;;;;;;5027098;28;20970;-54
2023/12/27 09:22:25;;;;;;;15.93;3.30;;;4.00;4.50;;;;;;5022305;28;20456;-54
2023/12/27 09:24:51;;;;;;;22.03;4.23;;;4.00;1.00;;;;;;5021883;28;20191;-54
2023/12/27 09:27:17;;;;;;;14.90;3.87;;;4.10;1.00;;;;;;5026516;28;20195;-52
2023/12/27 09:29:44;;;;;;;8.47;3.00;;;4.10;99.90;;;;;;5024316;28;20297;-54
2023/12/27 09:32:10;;;;;;;6.20;3.07;;;4.10;1.00;;;;;;5025821;28;20503;-55
2023/12/27 09:34:36;;;;;;;12.77;3.27;;;4.10;1.00;;;;;;5023276;28;20454;-55
2023/12/27 09:37:03;;;;;;;15.23;3.57;;;4.20;1.00;;;;;;5028857;28;20189;-55
2023/12/27 09:39:31;;;;;;;12.00;3.70;;;4.20;1.00;;;;;;5021191;28;20226;-55
2023/12/27 09:41:57;;;;;;;8.23;3.53;;;4.20;1.00;;;;;;5021888;28;20960;-55
2023/12/27 09:44:23;;;;;;;10.70;3.37;;;4.20;1.00;;;;;;5023133;28;20452;-55
2023/12/27 09:46:50;;;;;;;15.43;3.67;;;4.20;34.30;;;;;;5021119;28;20246;-55
2023/12/27 09:49:15;;;;;;;8.70;2.93;;;4.30;1.00;;;;;;5029151;28;20226;-55
2023/12/27 09:51:44;;;;;;;23.57;3.83;;;4.30;1.00;;;;;;5024378;28;21166;-55
2023/12/27 09:54:09;;;;;;;9.03;3.40;;;4.30;1.00;;;;;;5023677;28;20187;-56
2023/12/27 09:56:36;;;;;;;8.27;2.93;;;4.30;1.00;;;;;;5023406;28;20461;-55
2023/12/27 09:59:17;;;;;;;9.40;3.20;;;4.30;1.00;;;;;;5019573;28;20191;-55
2023/12/27 10:01:46;;;;;;;20.10;3.37;;;4.30;99.90;;;;;;5017145;28;20478;-55
2023/12/27 10:04:17;;;;;;;40.30;3.83;;;4.50;1.00;;;;;;5027140;28;20828;-55
2023/12/27 10:06:48;;;;;;;12.77;3.60;;;4.40;1.00;;;;;;5023006;28;20490;-55
2023/12/27 10:09:13;;;;;;;15.83;3.40;;;4.50;43.00;;;;;;5023430;28;20568;-55
2023/12/27 10:11:42;;;;;;;5.97;3.00;;;4.60;68.00;;;;;;5022276;28;20527;-55
2023/12/27 10:14:11;;;;;;;13.00;3.40;;;4.70;82.10;;;;;;5015541;28;20955;-56
2023/12/27 10:16:37;;;;;;;9.37;3.40;;;4.70;1.00;;;;;;5020124;28;20481;-55
2023/12/27 10:19:07;;;;;;;19.43;4.60;;;4.80;1.00;;;;;;5022868;28;20434;-55
2023/12/27 10:21:43;;;;;;;12.73;4.10;;;4.80;99.90;;;;;;5018616;28;20552;-56
2023/12/27 10:24:12;;;;;;;9.67;3.77;;;4.80;99.90;;;;;;5022259;28;20445;-56
2023/12/27 10:26:37;;;;;;;17.23;4.70;;;4.90;1.00;;;;;;5012601;28;20784;-57
2023/12/27 10:29:04;;;;;;;15.57;4.27;;;4.90;99.90;;;;;;5016759;28;20535;-57
2023/12/27 10:31:29;;;;;;;18.63;4.30;;;4.90;99.90;;;;;;5011530;28;20201;-56
2023/12/27 10:33:57;;;;;;;12.30;4.00;;;5.00;1.00;;;;;;5018798;28;20442;-56
2023/12/27 10:36:23;;;;;;;12.13;4.37;;;5.00;1.00;;;;;;5014156;28;20659;-55
2023/12/27 10:38:49;;;;;;;15.53;5.10;;;5.10;99.90;;;;;;5011804;28;20568;-56
2023/12/27 10:41:16;;;;;;;13.13;5.00;;;5.20;1.00;;;;;;5016947;28;20463;-55
2023/12/27 10:43:42;;;;;;;12.63;4.20;;;5.10;1.00;;;;;;5014089;28;20787;-56
2023/12/27 10:46:09;;;;;;;15.33;4.40;;;5.20;28.30;;;;;;5017459;28;20442;-55
2023/12/27 10:48:39;;;;;;;12.93;5.40;;;5.10;99.90;;;;;;5021233;28;20470;-55
2023/12/27 10:51:08;;;;;;;17.27;4.83;;;5.10;1.00;;;;;;5019051;28;20441;-55
2023/12/27 10:53:35;;;;;;;21.93;5.40;;;5.20;31.50;;;;;;5012719;28;20456;-56
2023/12/27 10:56:03;;;;;;;21.73;5.23;;;5.20;1.00;;;;;;5014445;28;20445;-55
2023/12/27 10:58:31;;;;;;;13.77;5.57;;;5.20;1.00;;;;;;5019745;28;20439;-56
2023/12/27 11:00:58;;;;;;;15.23;5.20;;;5.30;99.90;;;;;;5013404;28;20453;-56
2023/12/27 11:03:25;;;;;;;18.33;4.90;;;5.30;99.90;;;;;;5016915;28;20449;-56
2023/12/27 11:05:51;;;;;;;12.10;5.73;;;5.40;99.90;;;;;;5022435;28;20496;-56
2023/12/27 11:08:19;;;;;;;13.63;4.63;;;5.40;99.90;;;;;;5020101;28;20965;-56
2023/12/27 11:10:48;;;;;;;11.77;4.40;;;5.30;1.00;;;;;;5015094;28;20457;-55
2023/12/27 11:13:16;;;;;;;20.27;4.57;;;5.30;1.00;;;;;;5013522;28;20442;-56
2023/12/27 11:15:45;;;;;;;13.93;4.67;;;5.20;1.00;;;;;;5013743;28;20523;-56
2023/12/27 11:18:11;;;;;;;13.37;4.20;;;5.20;99.90;;;;;;5013973;28;20450;-56
2023/12/27 11:20:40;;;;;;;20.17;4.93;;;5.40;99.90;;;;;;5014511;28;20438;-56
2023/12/27 11:23:07;;;;;;;19.00;4.53;;;5.30;99.90;;;;;;5010161;28;20438;-56
2023/12/27 11:25:34;;;;;;;16.20;4.83;;;5.30;1.00;;;;;;5014584;28;20800;-56
2023/12/27 11:27:59;;;;;;;10.33;3.90;;;5.30;1.00;;;;;;5016375;28;20581;-56
2023/12/27 11:30:28;;;;;;;22.90;4.87;;;5.20;99.90;;;;;;5020008;28;20884;-56
2023/12/27 11:32:54;;;;;;;14.30;4.30;;;5.20;1.00;;;;;;5012998;28;20198;-56
2023/12/27 11:35:25;;;;;;;17.87;4.00;;;5.20;1.00;;;;;;5012580;28;20990;-57
2023/12/27 11:37:52;;;;;;;19.67;4.10;;;5.20;99.90;;;;;;5014122;28;20446;-56
2023/12/27 11:40:43;;;;;;;14.97;4.50;;;5.10;1.00;;;;;;5012365;28;20954;-56
2023/12/27 11:43:08;;;;;;;10.17;3.97;;;5.10;1.00;;;;;;5009663;28;20435;-56
2023/12/27 11:45:59;;;;;;;18.40;3.90;;;5.20;19.60;;;;;;5009167;28;20431;-56
2023/12/27 11:48:27;;;;;;;8.63;4.17;;;5.30;1.00;;;;;;5011904;28;20555;-56
2023/12/27 11:50:54;;;;;;;17.47;3.73;;;5.30;99.90;;;;;;5020680;28;20450;-56
2023/12/27 11:53:24;;;;;;;7.87;3.90;;;5.30;99.90;;;;;;5015581;28;20965;-56
2023/12/27 11:55:51;;;;;;;14.90;3.77;;;5.30;1.00;;;;;;5014983;28;20459;-56
2023/12/27 11:58:32;;;;;;;20.80;3.93;;;5.30;99.90;;;;;;5015111;28;20434;-55
2023/12/27 12:01:27;;;;;;;10.70;4.33;;;5.30;99.90;;;;;;5016328;28;22338;-56
2023/12/27 12:04:10;;;;;;;12.93;3.80;;;5.20;99.90;;;;;;5011387;28;20452;-56
2023/12/27 12:06:39;;;;;;;24.57;4.10;;;5.30;1.00;;;;;;5014410;28;21143;-56
2023/12/27 12:09:06;;;;;;;16.13;3.80;;;5.30;99.90;;;;;;5016506;28;20568;-55
2023/12/27 12:11:34;;;;;;;12.43;3.77;;;5.20;99.90;;;;;;5015057;28;20498;-55
2023/12/27 12:14:00;;;;;;;12.40;3.33;;;5.10;99.90;;;;;;5012734;28;20446;-55
2023/12/27 12:16:31;;;;;;;11.43;3.37;;;5.10;1.00;;;;;;5017060;28;20434;-55
2023/12/27 12:19:02;;;;;;;10.30;4.27;;;5.10;1.00;;;;;;5009567;28;20517;-55
2023/12/27 12:21:29;;;;;;;14.97;4.10;;;5.20;1.00;;;;;;5011919;28;20458;-55
2023/12/27 12:23:54;;;;;;;10.70;3.07;;;5.20;1.00;;;;;;5010861;28;20804;-55
2023/12/27 12:26:20;;;;;;;9.73;3.73;;;5.20;1.00;;;;;;5011612;28;20447;-55
2023/12/27 12:28:55;;;;;;;12.77;3.70;;;5.10;1.00;;;;;;5015300;28;20756;-55
2023/12/27 12:31:21;;;;;;;15.00;3.53;;;5.10;99.90;;;;;;5012007;28;20256;-55
2023/12/27 12:33:47;;;;;;;13.00;4.27;;;5.10;1.00;;;;;;5008363;28;20442;-55
2023/12/27 12:36:13;;;;;;;14.27;4.60;;;5.00;1.00;;;;;;5020462;28;20234;-55
2023/12/27 12:38:39;;;;;;;11.90;4.10;;;5.00;1.00;;;;;;5014104;28;20198;-56
2023/12/27 12:41:05;;;;;;;11.70;4.33;;;4.90;79.00;;;;;;5017873;28;20440;-55
2023/12/27 12:43:31;;;;;;;11.30;3.43;;;4.90;99.90;;;;;;5018355;28;20226;-55
2023/12/27 12:45:58;;;;;;;17.27;4.70;;;4.90;1.00;;;;;;5016514;28;20446;-55
2023/12/27 12:48:27;;;;;;;16.37;3.97;;;4.90;1.00;;;;;;5020812;28;21048;-55
2023/12/27 12:51:16;;;;;;;10.27;3.90;;;5.00;1.00;;;;;;5020920;28;20441;-55